This is the latest recevied weather packets stored in our database for station/object EA3ABN-1. If no packets are shown the sender has not sent any weather packets the latest 10 day(s).
| Time | Temp. | Humidity | Pressure | Rain* | Wind** | Luminosity | Snow |
|---|---|---|---|---|---|---|---|
| 1777415983 | 24.44° C | 31% | 1011.1 hPa | - | - | - | - |
| 1777409983 | 26.11° C | 31% | 1009.5 hPa | - | - | - | - |
| 1777409382 | 26.11° C | 31% | 1009.4 hPa | - | - | - | - |
| 1777407882 | 26.67° C | 31% | 1009.1 hPa | - | - | - | - |
| 1777403684 | 26.11° C | 33% | 1008.5 hPa | - | - | - | - |
| 1777402782 | 26.67° C | 33% | 1008.6 hPa | - | - | - | - |
| 1777402482 | 26.67° C | 33% | 1008.5 hPa | - | - | - | - |
| 1777401282 | 27.22° C | 33% | 1008.5 hPa | - | - | - | - |
| 1777400383 | 27.22° C | 32% | 1008.6 hPa | - | - | - | - |
| 1777399182 | 27.78° C | 32% | 1008.6 hPa | - | - | - | - |
| 1777398599 | 27.78° C | 32% | 1008.7 hPa | - | - | - | - |
| 1777397082 | 28.33° C | 33% | 1008.9 hPa | - | - | - | - |
| 1777396190 | 28.89° C | 33% | 1009 hPa | - | - | - | - |
| 1777395882 | 28.89° C | 32% | 1008.9 hPa | - | - | - | - |
| 1777393482 | 30.56° C | 32% | 1008.6 hPa | - | - | - | - |
| 1777393183 | 30.56° C | 32% | 1008.5 hPa | - | - | - | - |
| 1777390182 | 33.89° C | 32% | 1008.1 hPa | - | - | - | - |
| 1777389613 | 33.89° C | 32% | 1008.2 hPa | - | - | - | - |
| 1777385697 | 32.22° C | 32% | 1008.9 hPa | - | - | - | - |
| 1777384482 | 32.22° C | 32% | 1009 hPa | - | - | - | - |
| 1777382081 | 31.67° C | 32% | 1009.3 hPa | - | - | - | - |
| 1777381781 | 31.67° C | 32% | 1009.3 hPa | - | - | - | - |
| 1777379981 | 31.11° C | 32% | 1009.8 hPa | - | - | - | - |
| 1777379382 | 31.11° C | 32% | 1009.8 hPa | - | - | - | - |
| 1777374581 | 31.67° C | 32% | 1010.6 hPa | - | - | - | - |
* Rain since midnight (hover to see other rain measurements)
** Current wind speed in m/s (hover to see current wind gust speed)